NZAA/AKL METAR and TAF weather

Enter ICAO airport designator
Station Type Date Time Source
NZAA METAR 2021/09/16 21:00 UTC NOAA

NZAA 162100Z AUTO 20011KT 9999 BKN070/// OVC095/// 13/08 Q1004 NOSIG


Station Type Date Time Source
NZAA Decoded METAR 2021/09/16 21:00 UTC NOAA

Auckland Airport, New Zealand (NZAA) 37-01S 174-48E 6M
Sep 16, 2021 - 05:00 PM EDT / 2021.09.16 2100 UTC
Wind: from the SSW (200 degrees) at 13 MPH (11 KT):0
Visibility: greater than 7 mile(s):0
Sky conditions: overcast
Temperature: 55 F (13 C)
Dew Point: 46 F (8 C)
Relative Humidity: 71%
Pressure (altimeter): 29.65 in. Hg (1004 hPa)
ob: NZAA 162100Z AUTO 20011KT 9999 BKN070/// OVC095/// 13/08 Q1004 NOSIG
cycle: 21

Station Type Date Time Source
NZAA TAF 2021/09/16 18:12 UTC NOAA

TAF TAF NZAA 161710Z 1618/1718 20015KT 9999 BKN040
BECMG 1707/1709 19005KT

Example: see airport list